首页
METAR-TAF:

METAR-TAF

机场 :

基西米, 佛罗里达州, 美国

纬度: 28-17-23N, 经度: 081-26-14W, 海拔: 25米

当前天气观测

该预报发布于24分钟前的02:56 UTC
风速6节,风向东转东南
温度 27°C
湿度 84%
气压 1019 hPa
能見度: 16.1公里
天空无云

METAR: KISM 220256Z AUTO 11006KT 10SM CLR 27/24 A3010 RMK AO2 SLP195 6//// T02720244 51013 PNO $

时间: 23:20 (03:20 UTC)

预报

该预报发布于3小时和45分钟前的23:35 UTC
预报有效从22日的 00点(UTC)到 22日的 24点(UTC)
风速8节,风向东转东南
能見度: 10公里
散云层高于4000英尺
多云层高于6000英尺
多云层高于25000英尺
从 22日的 0400点(UTC)
风速2节,风向多变
能見度: 10公里
少量云层高于12000英尺
散云层高于25000英尺
从 22日的 1500点(UTC)
风速5节,风向东南
能見度: 10公里
散云层高于3500英尺
散云层高于25000英尺
从 22日的 1900点(UTC)
风速9节,风向东转东南
能見度: 10公里
散云层高于3000英尺, 积雨云.
多云层高于25000英尺
附近有雷暴

TAF: KISM 212335Z 2200/2224 12008KT P6SM SCT040 BKN060 BKN250 FM220400 VRB02KT P6SM FEW120 SCT250 FM221500 13005KT P6SM SCT035 SCT250 FM221900 11009KT P6SM VCTS SCT030CB BKN250

超过4000个机场的气象观测和天气预报(METAR&TAF报告)。

可查询的气象台以黄色和红色小点在地图上表示。

将鼠标移到小点上方,可查看气象台名称。

然后点击查看天气观测和预报。

如需切换地图:点击带黑十字的绿色按钮放大地图;点击带横线的绿色按钮缩小地图;或者点击绿色箭头查看邻近地区的地图。


METAR-TAF: